Impacts TAF Board INFO
FOR SITUATIONAL AWARENESS. NOT TO BE USED FOR FLIGHT PLANNING PURPOSES.
IDs:

KCLE - Cleveland/Hopkins In, OH, US

Issued at 1727 UTC 22 May 2018
Updated at 1752 UTC 22 May 2018
Potential Impact None Slight Moderate High
Time1739Z 22/18Z 22/19Z 22/20Z 22/21Z 22/22Z 22/23Z 23/00Z 23/01Z 23/02Z 23/03Z 23/04Z 23/05Z 23/06Z>>
Type OBS PRVL
  [TEMP]  
PRVL
  [TEMP]  
PRVL PRVL PRVL PRVL PRVL PRVL PRVL PRVL PRVL PRVL PRVL
VIS 1.75 >6
  [1.5]  
>6
  [1.5]  
>6 >6 >6 >6 >6 >6 >6 >6 >6 >6 >6
CIG 25 35
  [12]  
35
  [12]  
35 25 25 25 25 25 25 12 12 12 12
Cover OVC OVC
  [OVC]  
OVC
  [OVC]  
OVC OVC OVC OVC OVC OVC OVC OVC OVC OVC OVC
FltCat IFR VFR
  [IFR]  
VFR
  [IFR]  
VFR MVFR MVFR MVFR MVFR MVFR MVFR MVFR MVFR MVFR MVFR
WX TSRA BR VCTS
  [-TSRA]  
VCTS
  [-TSRA]  
VCTS -- -- -- -- -- -- -- -- -- --
WDir 320 240
[240]
240
[240]
240 300 300 300 300 300 300 360 360 360 360
WSpd 8 10
  [10]  
10
  [10]  
10 8 8 8 8 8 8 6 6 6 6
WGst -- --
  [--]  
--
  [--]  
-- -- -- -- -- -- -- -- -- -- --

Raw TAF
KCLE 221727Z 2218/2324 24010KT P6SM VCTS SCT025CB OVC035
  TEMPO 2218/2220 1 1/2SM -TSRA OVC012CB
  FM222100 30008KT P6SM OVC025
  FM230300 36006KT P6SM OVC012
  FM231200 02006KT P6SM SCT012


Raw METAR
KCLE 221739Z 32008KT 1 3/4SM TSRA BR FEW009 BKN025CB OVC060 21/19 A3000 RMK AO2 LTG DSNT W TSB16 FRQ LTGICCCCG OHD TS OHD MOV NE P0004 T02110194
KCLE 221717Z COR VRB04KT 10SM TS SCT027 BKN040CB OVC055 26/20 A2998 RMK AO2 LTG DSNT W TSB17 OCNL LTGICCCCG W TS W MOV E T02560200
KCLE 221713Z 26006KT 10SM SCT024 BKN030 OVC040 26/19 A2998 RMK AO2 LTG DSNT W T02610194
KCLE 221651Z 23007KT 10SM BKN024 BKN032 25/19 A3000 RMK AO2 LTG DSNT W SLP152 T02500194
KCLE 221623Z 24008G14KT 10SM FEW019 SCT031 BKN042 25/20 A3001 RMK AO2 T02500200
KCLE 221551Z 25008KT 10SM BKN017 BKN022 OVC044 24/19 A3002 RMK AO2 SLP161 T02390194
KCLE 221540Z 23009KT 10SM BKN014 OVC022 24/20 A3002 RMK AO2 T02390200
KCLE 221451Z 24009KT 10SM SCT012 BKN022 OVC100 22/19 A3002 RMK AO2 RAE1353 SLP163 P0000 60012 T02220194 50001

METAR Board
Radar Display
Forecast Discussion

FOR SITUATIONAL AWARENESS. NOT TO BE USED FOR FLIGHT PLANNING PURPOSES.